Liberal Mid-America Regional Airport
KLBL : now visible

Airfield :











YOU CAN JOIN US ON...

 
LOGIN :

Register | Disclaimer

   EN    FR    IT 

 









Legend :    VFR   Marginal VFR   IFR   Intensive IFR   Very Intensive IFR
Visi :
Ceiling :
>= 8 km
>= 3000ft
5 to 8 km
1000 to 3000 ft
1500m to 5 km
500 to 1000 ft
800 to 1500m
200 to 500 ft
< 800m
< 200 ft
Symbols :   Thunderstorms  Fog  Heavy snow  Heavy precipitations  Wind > 20 kt







- Airport Elevation : 2885 ft
- IATA code : LBL


KLBL - Liberal Mid-America Regional

CURRENT METAR :
  • 210156Z AUTO 18012KT 10SM CLR 24/03 A2967 RMK AO2 SLP025 T02390028

EXPIRED METARs :
  • 210056Z AUTO 19016KT 10SM CLR 27/03 A2966 RMK AO2 PK WND 19026/0013 SLP023 T02670033
  • 202356Z AUTO 19021G26KT 10SM CLR 30/04 A2967 RMK AO2 PK WND 19027/2344 SLP025 T03000044 10311 20267 56031
  • 202341Z AUTO 19019G25KT 10SM FEW001 30/05 A2968 RMK AO2 PK WND 19026/2330

TAF KLBL
Valid from the 21 at 00:00 until the 22 at 00:00 UTC


202328Z 2100/2124 17013G20KT P6SM SKC WS020/20045KT
FM210800 21010KT P6SM FEW250
KZKC FIR / North America



MET'MAP, your aeronautical weather chart ! - Copyright ORBIFLY December 2007 - Disclaimer

ORBIFLY MET'MAP TEAM :

Programming & Development : Alexandra Zaïnal
Concept & Development : Baudouin d'Aumeries
Co-Development & Prog : Marc-Olivier Méhu
Technical & hardware support : Manuel Goepfert

Contact : metmap@orbifly.com




SOURCES & CREDITS :

   NOAA       Earth
Advisory